Time;durP1;ratioP1;P1;durP2;ratioP2;P2;SDS_P1;SDS_P2;PMS_P1;PMS_P2;Temp;Humidity;BMP_temperature;BMP_pressure;BME280_temperature;BME280_humidity;BME280_pressure;Samples;Min_cycle;Max_cycle;Signal;HPM_P1;HPM_P2
2022/04/02 00:00:49;;;;;;;4.10;1.87;;;;;;;0.22;77.24;101395.78;4908481;29;20052;-86
2022/04/02 00:03:14;;;;;;;6.75;1.80;;;;;;;0.24;77.77;101403.50;4907496;29;20057;-86
2022/04/02 00:05:39;;;;;;;3.70;1.63;;;;;;;0.24;77.53;101406.13;4897206;29;20400;-86
2022/04/02 00:08:05;;;;;;;7.30;1.80;;;;;;;0.18;77.47;101396.31;4896164;29;20053;-86
2022/04/02 00:10:31;;;;;;;4.50;1.83;;;;;;;0.18;77.57;101391.84;4878493;29;20144;-86
2022/04/02 00:13:03;;;;;;;3.30;1.90;;;;;;;0.20;77.08;101399.56;4895584;29;20128;-86
2022/04/02 00:15:29;;;;;;;6.85;1.90;;;;;;;0.11;77.25;101383.81;4896970;29;20029;-86
2022/04/02 00:17:58;;;;;;;3.90;1.73;;;;;;;0.22;77.45;101416.88;4879280;29;20039;-86
2022/04/02 00:24:17;;;;;;;;;;;;;;;;;;;;;
2022/04/02 00:26:42;;;;;;;4.38;1.73;;;;;;;0.10;76.20;101386.59;4933554;23;20049;-86
2022/04/02 00:29:41;;;;;;;3.47;1.80;;;;;;;0.27;76.52;101416.34;4972299;28;20110;-86
2022/04/02 00:33:00;;;;;;;5.38;1.67;;;;;;;0.05;77.54;101381.06;4964889;28;20143;-86
2022/04/02 00:35:26;;;;;;;4.43;1.90;;;;;;;0.03;76.45;101375.16;4892454;29;20135;-86
2022/04/02 00:38:00;;;;;;;4.57;1.63;;;;;;;0.08;76.95;101383.34;4962169;23;20052;-85
2022/04/02 00:41:04;;;;;;;5.43;1.92;;;;;;;0.00;78.01;101365.78;4934869;29;20433;-86
2022/04/02 00:43:58;;;;;;;5.38;2.15;;;;;;;0.19;77.18;101401.41;4918735;29;20122;-86
2022/04/02 00:46:25;;;;;;;4.70;1.67;;;;;;;0.20;76.81;101407.47;4933185;29;20047;-86
2022/04/02 00:48:54;;;;;;;4.95;1.60;;;;;;;0.23;76.92;101407.13;4917741;29;20126;-86
2022/04/02 00:51:20;;;;;;;3.75;1.80;;;;;;;0.23;76.39;101407.13;4933856;29;20172;-86
2022/04/02 00:53:49;;;;;;;9.23;1.80;;;;;;;0.21;76.89;101395.94;4931520;29;20142;-86
2022/04/02 00:56:16;;;;;;;5.88;2.05;;;;;;;0.20;76.90;101399.56;4932919;29;20023;-87
2022/04/02 00:58:42;;;;;;;4.90;1.85;;;;;;;0.19;76.50;101395.28;4933517;29;20024;-86
2022/04/02 01:01:07;;;;;;;3.00;1.60;;;;;;;0.22;75.72;101410.75;4932179;29;20050;-86
2022/04/02 01:03:34;;;;;;;5.40;1.60;;;;;;;0.14;76.42;101401.94;4933467;29;20039;-86
2022/04/02 01:06:00;;;;;;;2.35;1.40;;;;;;;0.09;76.50;101398.19;4930557;29;20166;-86
2022/04/02 01:08:25;;;;;;;2.67;1.88;;;;;;;0.10;76.83;101402.41;4923480;29;20403;-86
2022/04/02 01:10:50;;;;;;;3.63;1.60;;;;;;;0.01;77.11;101398.22;4914701;29;20032;-86
2022/04/02 01:13:16;;;;;;;3.50;1.60;;;;;;;-0.02;77.52;101405.47;4933670;29;20476;-86
2022/04/02 01:15:42;;;;;;;4.13;1.73;;;;;;;-0.05;76.86;101403.16;4933500;29;20024;-87
2022/04/02 01:18:07;;;;;;;4.28;1.80;;;;;;;-0.07;77.11;101404.34;4932544;29;20391;-87
2022/04/02 01:20:33;;;;;;;4.57;1.60;;;;;;;-0.12;77.38;101398.75;4926714;29;20118;-86
2022/04/02 01:22:59;;;;;;;2.87;1.63;;;;;;;-0.09;78.26;101398.44;4932131;29;20095;-86
2022/04/02 01:25:31;;;;;;;5.85;1.90;;;;;;;-0.17;77.67;101392.19;4932988;29;20051;-86
2022/04/02 01:27:58;;;;;;;3.55;1.70;;;;;;;-0.06;77.77;101400.72;4933032;29;20036;-86
2022/04/02 01:30:23;;;;;;;4.88;1.63;;;;;;;-0.07;77.44;101401.72;4932000;29;20408;-86
2022/04/02 01:32:48;;;;;;;5.70;1.93;;;;;;;-0.08;77.78;101394.78;4932687;29;20067;-86
2022/04/02 01:35:14;;;;;;;6.27;1.90;;;;;;;-0.09;77.14;101393.97;4933666;29;20199;-86
2022/04/02 01:37:40;;;;;;;2.63;1.40;;;;;;;-0.12;77.72;101394.34;4932753;29;20028;-86
2022/04/02 01:40:07;;;;;;;4.18;1.80;;;;;;;-0.09;77.70;101403.69;4937308;29;20127;-86
2022/04/02 01:42:32;;;;;;;2.55;1.63;;;;;;;-0.10;77.30;101397.63;4935979;29;20036;-85
2022/04/02 01:44:58;;;;;;;4.65;1.60;;;;;;;-0.12;76.64;101388.22;4922249;29;20546;-86
2022/04/02 01:47:24;;;;;;;5.37;1.67;;;;;;;-0.16;76.75;101383.28;4936336;29;20020;-86
2022/04/02 01:49:50;;;;;;;3.93;1.73;;;;;;;-0.09;77.20;101393.16;4919845;29;20704;-86
2022/04/02 01:52:18;;;;;;;3.63;1.60;;;;;;;-0.14;76.89;101400.75;4935602;29;20078;-87
2022/04/02 01:54:44;;;;;;;2.90;1.50;;;;;;;-0.14;77.48;101406.00;4937100;29;20034;-86
2022/04/02 01:57:10;;;;;;;2.90;1.60;;;;;;;-0.17;76.41;101399.28;4936495;29;20636;-86
2022/04/02 01:59:36;;;;;;;6.15;1.70;;;;;;;-0.19;77.19;101396.84;4937093;29;20111;-86
2022/04/02 02:02:01;;;;;;;3.38;1.67;;;;;;;-0.24;76.49;101400.97;4922250;29;20567;-86
2022/04/02 02:04:27;;;;;;;3.00;1.53;;;;;;;-0.21;76.65;101405.88;4937603;29;20074;-86
2022/04/02 02:06:53;;;;;;;2.60;1.52;;;;;;;-0.26;76.67;101401.13;4951972;23;20044;-86
2022/04/02 02:12:24;;;;;;;3.28;1.52;;;;;;;-0.36;75.62;101403.97;4929465;29;20091;-87
2022/04/02 02:14:50;;;;;;;6.25;1.85;;;;;;;-0.25;76.43;101420.38;4936665;29;20132;-87
2022/04/02 02:17:16;;;;;;;6.82;1.90;;;;;;;-0.23;75.97;101411.34;4936447;29;20035;-87
2022/04/02 02:19:41;;;;;;;5.67;1.50;;;;;;;-0.27;75.36;101402.13;4902820;29;20313;-87
2022/04/02 02:22:06;;;;;;;4.73;1.70;;;;;;;-0.21;76.11;101419.91;4925987;29;20031;-87
2022/04/02 02:24:32;;;;;;;6.97;1.70;;;;;;;-0.24;76.12;101422.88;4926969;29;20083;-87
2022/04/02 02:26:58;;;;;;;3.83;1.55;;;;;;;-0.20;74.42;101424.16;4916038;29;20091;-86
2022/04/02 02:29:23;;;;;;;5.70;1.50;;;;;;;-0.20;75.21;101418.91;4922463;29;20055;-85
2022/04/02 02:31:49;;;;;;;4.90;1.80;;;;;;;-0.20;75.26;101424.16;4917280;29;20039;-85
2022/04/02 02:36:58;;;;;;;3.08;1.70;;;;;;;-0.44;75.93;101397.94;4944904;23;20078;-85
2022/04/02 02:39:29;;;;;;;2.90;1.48;;;;;;;-0.26;75.85;101430.13;4935939;29;20028;-86
2022/04/02 02:41:54;;;;;;;5.10;1.57;;;;;;;-0.28;75.52;101432.09;4926227;29;20028;-85
2022/04/02 02:44:21;;;;;;;5.25;1.73;;;;;;;-0.33;75.82;101424.72;4917172;29;20059;-85
2022/04/02 02:46:46;;;;;;;3.17;1.50;;;;;;;-0.46;75.34;101404.19;5079954;23;20015;-85
2022/04/02 02:49:30;;;;;;;4.43;1.70;;;;;;;-0.36;76.45;101430.31;4915329;29;20399;-86
2022/04/02 02:52:20;;;;;;;5.68;1.85;;;;;;;-0.35;76.10;101436.38;4917053;29;20028;-86
2022/04/02 03:01:46;;;;;;;2.95;1.45;;;;;;;-0.52;77.05;101420.66;4914037;29;20087;-85
2022/04/02 03:05:15;;;;;;;6.32;1.67;;;;;;;-0.71;77.10;101397.34;4916801;29;20119;-85
2022/04/02 03:07:48;;;;;;;2.88;1.55;;;;;;;-0.55;76.89;101430.69;5261699;23;20062;-84
2022/04/02 03:10:37;;;;;;;3.88;1.38;;;;;;;-0.54;77.14;101427.88;4937406;29;20038;-84
2022/04/02 03:13:46;;;;;;;1.98;1.30;;;;;;;-0.57;77.80;101427.41;4913567;29;20050;-84
2022/04/02 03:16:11;;;;;;;5.88;1.60;;;;;;;-0.64;77.55;101422.00;5000373;23;20036;-84
2022/04/02 03:18:36;;;;;;;3.00;1.70;;;;;;;-0.68;77.69;101418.06;4896315;29;20497;-84
2022/04/02 03:21:02;;;;;;;2.87;1.30;;;;;;;-0.70;77.70;101422.66;4897301;29;20123;-83
2022/04/02 03:23:27;;;;;;;3.97;1.20;;;;;;;-0.65;77.03;101430.88;4896358;29;20028;-83
2022/04/02 03:25:53;;;;;;;3.63;1.37;;;;;;;-0.68;76.48;101425.97;4895790;29;20024;-83
2022/04/02 03:28:19;;;;;;;5.68;1.60;;;;;;;-0.63;76.40;101421.03;4896470;29;20678;-83
2022/04/02 03:30:44;;;;;;;4.27;1.20;;;;;;;-0.58;76.08;101439.78;4896108;29;20694;-84
2022/04/02 03:33:10;;;;;;;4.47;1.53;;;;;;;-0.56;75.64;101434.31;4879683;29;20124;-84
2022/04/02 03:35:35;;;;;;;2.27;1.13;;;;;;;-0.60;76.00;101425.94;4880530;29;20388;-84
2022/04/02 03:38:01;;;;;;;3.33;1.50;;;;;;;-0.58;76.26;101433.66;4876355;29;20040;-83
2022/04/02 03:40:29;;;;;;;5.25;1.40;;;;;;;-0.60;76.58;101433.84;4880628;29;20029;-84
2022/04/02 03:42:55;;;;;;;4.40;1.20;;;;;;;-0.69;77.27;101425.16;4896082;29;20056;-84
2022/04/02 03:45:22;;;;;;;3.67;1.88;;;;;;;-0.62;76.51;101443.72;4897058;29;20119;-84
2022/04/02 03:47:47;;;;;;;2.70;1.30;;;;;;;-0.77;77.33;101426.00;4899916;23;20107;-83
2022/04/02 03:51:04;;;;;;;3.45;1.50;;;;;;;-0.59;76.92;101448.66;4918442;29;20110;-85
2022/04/02 03:53:41;;;;;;;2.30;1.37;;;;;;;-0.71;76.59;101432.38;4916640;29;20051;-83
2022/04/02 03:56:08;;;;;;;3.47;1.67;;;;;;;-0.61;76.87;101448.81;4912360;29;20379;-82
2022/04/02 03:58:33;;;;;;;3.65;1.50;;;;;;;-0.59;77.42;101450.44;4897354;29;20043;-81
2022/04/02 04:01:07;;;;;;;6.47;1.63;;;;;;;-0.62;77.63;101452.44;4895922;29;20036;-82
2022/04/02 04:03:33;;;;;;;2.65;1.50;;;;;;;-0.65;77.54;101465.13;4895224;29;20585;-82
2022/04/02 04:05:59;;;;;;;2.75;1.10;;;;;;;-0.68;77.95;101457.53;4895712;29;20366;-82
2022/04/02 04:08:25;;;;;;;3.05;1.70;;;;;;;-0.71;78.54;101466.59;4892743;29;20044;-82
2022/04/02 04:10:50;;;;;;;3.53;1.13;;;;;;;-0.76;78.62;101461.00;4897488;29;20445;-85
2022/04/02 04:13:15;;;;;;;2.83;1.70;;;;;;;-0.75;78.76;101467.13;4897412;29;20060;-84
2022/04/02 04:15:40;;;;;;;3.20;1.73;;;;;;;-0.82;79.05;101465.13;4899493;29;20484;-85
2022/04/02 04:18:06;;;;;;;3.30;1.73;;;;;;;-0.87;80.08;101470.06;4896083;29;20076;-84
2022/04/02 04:20:35;;;;;;;7.20;1.73;;;;;;;-0.89;79.77;101469.41;4898067;29;20052;-87
2022/04/02 04:23:01;;;;;;;5.03;1.83;;;;;;;-0.91;79.01;101466.13;4893644;29;20490;-87
2022/04/02 04:31:52;;;;;;;3.17;1.70;;;;;;;-0.89;79.53;101468.59;4996314;23;20168;-87
2022/04/02 04:38:19;;;;;;;4.00;1.70;;;;;;;-0.87;79.26;101471.91;4914567;29;20531;-87
2022/04/02 04:40:53;;;;;;;3.70;1.60;;;;;;;-1.10;78.94;101441.81;4914466;29;20024;-88
2022/04/02 04:43:18;;;;;;;3.80;1.60;;;;;;;-1.08;78.94;101446.91;4856360;29;20219;-86
2022/04/02 04:58:08;;;;;;;6.55;1.77;;;;;;;-1.24;79.55;101471.38;4879080;29;20084;-85
2022/04/02 05:00:42;;;;;;;2.83;1.60;;;;;;;-1.19;78.66;101476.19;4875749;29;20080;-86
2022/04/02 15:15:24;;;;;;;5.67;1.50;;;;;;;6.01;45.29;101818.88;6023182;23;21384;31
2022/04/02 19:01:42;;;;;;;14.13;5.22;;;;;;;2.22;64.66;102016.84;5058804;23;20079;-86
2022/04/02 19:11:42;;;;;;;4.00;1.40;;;;;;;2.24;63.00;102034.16;4889853;29;20845;-86
2022/04/02 19:22:27;;;;;;;3.15;1.63;;;;;;;1.96;63.98;102058.41;5142759;23;20048;-90
2022/04/02 19:27:27;;;;;;;3.47;1.30;;;;;;;1.76;63.92;102046.56;5437499;23;20071;-85
2022/04/02 19:46:35;;;;;;;7.80;1.50;;;;;;;1.24;64.74;102060.97;5471423;23;20091;-85
2022/04/02 19:59:09;;;;;;;4.00;1.58;;;;;;;0.77;67.82;102079.09;4915405;29;20075;-86
2022/04/02 20:12:35;;;;;;;3.65;1.70;;;;;;;0.67;67.76;102100.34;4891261;29;20036;-83
2022/04/02 20:20:12;;;;;;;4.88;2.00;;;;;;;0.78;66.93;102107.13;3392479;23;20056;-84
2022/04/02 20:22:37;;;;;;;3.13;1.57;;;;;;;0.85;66.61;102102.03;4932296;29;20142;-85
2022/04/02 20:37:06;;;;;;;3.90;1.43;;;;;;;0.97;63.34;102105.19;4902473;23;20071;-85
2022/04/02 20:39:33;;;;;;;7.70;1.97;;;;;;;0.97;62.62;102118.41;4895986;29;20895;-84
2022/04/02 20:41:58;;;;;;;7.07;2.42;;;;;;;0.90;62.46;102111.13;4899439;29;20506;-84
2022/04/02 21:28:34;;;;;;;4.15;1.52;;;;;;;-0.51;63.70;102117.47;4913728;29;20071;-83
2022/04/02 21:36:58;;;;;;;3.53;1.10;;;;;;;-0.50;64.83;102147.28;5595725;23;20063;-84
2022/04/02 21:39:24;;;;;;;2.78;1.58;;;;;;;-0.61;65.60;102149.16;4912325;29;20037;-84
2022/04/02 21:41:49;;;;;;;6.97;1.63;;;;;;;-0.62;65.89;102163.28;4911930;29;20043;-83
2022/04/02 21:54:14;;;;;;;6.20;1.73;;;;;;;-0.97;66.02;102161.47;5013886;23;20120;-83
2022/04/02 22:10:04;;;;;;;3.65;1.73;;;;;;;-1.12;66.96;102175.13;4935067;29;20051;-83
2022/04/02 22:16:40;;;;;;;3.80;0.90;;;;;;;-1.25;67.38;102175.47;4935324;29;20306;-84
2022/04/02 22:20:01;;;;;;;3.90;1.33;;;;;;;-1.30;67.59;102175.06;4935555;29;20091;-83
2022/04/02 22:32:14;;;;;;;4.15;1.50;;;;;;;-1.55;69.09;102185.25;4935268;29;20131;-83
2022/04/02 22:37:14;;;;;;;2.78;1.30;;;;;;;-1.64;70.17;102186.13;5333378;23;20065;-83
2022/04/02 22:39:46;;;;;;;4.00;1.60;;;;;;;-1.71;70.41;102182.41;4897431;29;20040;-84
2022/04/02 22:49:28;;;;;;;3.13;1.65;;;;;;;-1.92;71.18;102195.75;5088767;23;20055;-84
2022/04/02 22:52:23;;;;;;;4.18;1.70;;;;;;;-1.98;71.38;102191.88;4914998;29;20051;-84
2022/04/02 22:57:36;;;;;;;5.93;1.50;;;;;;;-2.26;72.63;102180.44;4913180;29;20044;-84
2022/04/02 23:00:29;;;;;;;6.17;1.37;;;;;;;-2.15;72.87;102198.66;4915470;29;20048;-84
2022/04/02 23:02:55;;;;;;;4.60;1.50;;;;;;;-2.40;73.51;102164.16;4914746;29;20392;-84
2022/04/02 23:05:48;;;;;;;3.23;1.60;;;;;;;-2.30;73.39;102204.34;4914981;29;20028;-84
2022/04/02 23:08:13;;;;;;;3.00;1.70;;;;;;;-2.45;74.27;102205.72;5231015;23;20103;-84
2022/04/02 23:10:39;;;;;;;3.27;1.57;;;;;;;-2.48;74.94;102211.25;4915931;29;20420;-84
2022/04/02 23:13:05;;;;;;;7.47;2.00;;;;;;;-2.53;75.03;102214.28;4929643;29;20032;-84
2022/04/02 23:15:31;;;;;;;4.93;1.70;;;;;;;-2.71;75.68;102198.38;4934965;29;20464;-84
2022/04/02 23:17:57;;;;;;;6.33;2.07;;;;;;;-2.75;76.11;102210.13;4933756;29;20526;-84
2022/04/02 23:20:23;;;;;;;5.78;1.80;;;;;;;-2.85;76.45;102215.34;4934280;29;20035;-84
2022/04/02 23:22:49;;;;;;;3.90;1.47;;;;;;;-2.93;77.16;102213.41;4933591;29;20027;-84
2022/04/02 23:25:44;;;;;;;4.32;1.80;;;;;;;-3.14;77.25;102196.91;4990832;23;20043;-84
2022/04/02 23:28:27;;;;;;;6.35;1.90;;;;;;;-3.16;77.71;102206.69;4931753;29;20054;-84
2022/04/02 23:31:33;;;;;;;8.00;1.75;;;;;;;-3.21;78.20;102209.72;4934915;29;20036;-84
2022/04/02 23:37:54;;;;;;;4.97;1.90;;;;;;;-3.55;78.54;102184.59;4927892;29;20063;-84
2022/04/02 23:40:19;;;;;;;4.43;1.93;;;;;;;-3.40;79.80;102213.06;4899947;29;20292;-84
2022/04/02 23:42:45;;;;;;;4.80;2.00;;;;;;;-3.53;80.57;102208.88;4950496;29;20031;-85
2022/04/02 23:45:10;;;;;;;6.47;1.90;;;;;;;-3.71;80.64;102186.84;5327704;23;20043;-84
2022/04/02 23:47:42;;;;;;;6.63;2.07;;;;;;;-3.68;81.39;102199.69;4933223;29;20594;-85
2022/04/02 23:50:17;;;;;;;4.23;2.37;;;;;;;-3.80;81.24;102193.69;4934036;29;20814;-84
2022/04/02 23:52:43;;;;;;;7.35;2.30;;;;;;;-3.84;81.66;102197.53;4932807;29;20172;-84
2022/04/02 23:55:31;;;;;;;4.43;2.00;;;;;;;-4.06;81.89;102177.53;4929682;29;20502;-84
2022/04/02 23:58:31;;;;;;;;;;;;;;;;;;;;;
